0R4

Concordia Parish Airport

Vidalia, Louisiana, USA
METAR K0R4 171255Z AUTO 00000KT 5SM BR CLR 07/07 A3028 RMK AO2 T00650065
Observed Flight Rules
Dec-17 @ 12:55 UTC (20 minutes ago) Marginal Visual Flight Rules
Visibility Clouds Conditions
5 miles
  • Clear skies
  • Mist
Temperatures Readings
Current 7°C / 45°F
Dewpoint 7°C / 45°F
Humidity 100%
Altimeter 30.28" Hg
Pressure 1025 hPa
Elevation 17
METAR K0R4 171255Z AUTO 00000KT 5SM BR CLR 07/07 A3028 RMK AO2 T00650065
Observed Flight Rules
Dec-17 @ 12:55 UTC
(20 minutes ago)
MVFR
Clouds
  • Clear skies
Conditions
  • Mist
Temperature Dewpoint
7°C / 45°F 7°C / 45°F
Humidity Altimeter Pressure
100% 30.28" Hg 1025 hPa